Time;durP1;ratioP1;P1;durP2;ratioP2;P2;SDS_P1;SDS_P2;PMS_P1;PMS_P2;Temp;Humidity;BMP_temperature;BMP_pressure;BME280_temperature;BME280_humidity;BME280_pressure;Samples;Min_cycle;Max_cycle;Signal;HPM_P1;HPM_P2
2022/11/13 00:01:28;;;;;;;45.03;20.27;;;;;;;;;;5011241;28;20329;-71
2022/11/13 00:03:53;;;;;;;39.70;19.55;;;;;;;;;;5010547;28;20037;-71
2022/11/13 00:06:19;;;;;;;36.40;19.52;;;;;;;;;;5014480;28;20033;-71
2022/11/13 00:08:44;;;;;;;42.92;20.50;;;;;;;;;;5010574;28;20458;-71
2022/11/13 00:11:17;;;;;;;38.85;19.40;;;;;;;;;;5012160;28;20064;-71
2022/11/13 00:13:42;;;;;;;40.75;19.90;;;;;;;;;;5005206;28;20021;-70
2022/11/13 00:16:12;;;;;;;38.53;20.30;;;;;;;;;;5012451;28;20034;-71
2022/11/13 00:18:37;;;;;;;40.70;20.42;;;;;;;;;;4991474;28;20056;-71
2022/11/13 00:21:06;;;;;;;38.23;19.43;;;;;;;;;;5013534;28;20053;-72
2022/11/13 00:23:33;;;;;;;38.63;20.05;;;;;;;;;;5009365;28;20279;-71
2022/11/13 00:26:02;;;;;;;38.05;19.83;;;;;;;;;;4994582;28;20034;-71
2022/11/13 00:28:28;;;;;;;43.53;20.35;;;;;;;;;;5010375;28;20034;-70
2022/11/13 00:30:57;;;;;;;40.67;19.37;;;;;;;;;;5003878;28;20460;-71
2022/11/13 00:33:22;;;;;;;43.97;20.48;;;;;;;;;;5004595;28;20279;-71
2022/11/13 00:35:47;;;;;;;36.20;19.17;;;;;;;;;;5011005;28;20523;-71
2022/11/13 00:38:12;;;;;;;36.10;18.63;;;;;;;;;;5006896;28;20547;-70
2022/11/13 00:40:37;;;;;;;38.60;19.27;;;;;;;;;;5007549;28;20038;-71
2022/11/13 00:43:03;;;;;;;37.50;19.63;;;;;;;;;;5007191;28;20034;-72
2022/11/13 00:45:28;;;;;;;38.37;19.83;;;;;;;;;;5008044;28;20060;-71
2022/11/13 00:47:53;;;;;;;34.70;18.95;;;;;;;;;;5006937;28;20291;-71
2022/11/13 00:50:19;;;;;;;39.85;18.88;;;;;;;;;;5012768;28;20062;-72
2022/11/13 00:52:44;;;;;;;33.67;17.47;;;;;;;;;;5008202;28;20030;-71
2022/11/13 00:55:09;;;;;;;40.50;19.38;;;;;;;;;;5006301;28;20030;-70
2022/11/13 00:57:34;;;;;;;36.60;18.60;;;;;;;;;;5008022;28;20033;-71
2022/11/13 01:00:00;;;;;;;34.85;17.85;;;;;;;;;;5011476;28;20052;-71
2022/11/13 01:02:25;;;;;;;34.20;17.73;;;;;;;;;;5009248;28;20037;-71
2022/11/13 01:04:50;;;;;;;33.90;17.10;;;;;;;;;;5009787;28;20034;-71
2022/11/13 01:07:15;;;;;;;34.57;17.80;;;;;;;;;;4990796;28;20275;-70
2022/11/13 01:09:40;;;;;;;36.23;17.73;;;;;;;;;;4990927;28;20033;-72
2022/11/13 01:12:06;;;;;;;37.13;17.60;;;;;;;;;;5007681;28;20295;-71
2022/11/13 01:14:31;;;;;;;34.17;18.10;;;;;;;;;;5013713;28;20279;-70
2022/11/13 01:16:56;;;;;;;34.97;17.93;;;;;;;;;;5007496;28;20057;-71
2022/11/13 01:19:21;;;;;;;33.53;17.53;;;;;;;;;;5004346;28;20033;-71
2022/11/13 01:21:46;;;;;;;40.93;19.23;;;;;;;;;;5008293;28;20083;-71
2022/11/13 01:24:12;;;;;;;38.33;18.97;;;;;;;;;;5011659;28;20076;-71
2022/11/13 01:26:37;;;;;;;35.27;18.40;;;;;;;;;;5011407;28;20033;-70
2022/11/13 01:29:02;;;;;;;38.37;18.83;;;;;;;;;;5013535;28;20294;-71
2022/11/13 01:31:28;;;;;;;36.67;18.63;;;;;;;;;;5013224;28;20030;-70
2022/11/13 01:33:54;;;;;;;33.40;17.52;;;;;;;;;;5009851;28;20361;-70
2022/11/13 01:36:20;;;;;;;39.78;19.10;;;;;;;;;;5008885;28;20033;-72
2022/11/13 01:38:46;;;;;;;35.60;18.50;;;;;;;;;;5006299;28;20029;-71
2022/11/13 01:41:15;;;;;;;37.17;18.98;;;;;;;;;;5009916;28;20030;-70
2022/11/13 01:43:40;;;;;;;35.60;18.43;;;;;;;;;;5007245;28;20373;-71
2022/11/13 01:46:05;;;;;;;32.80;18.00;;;;;;;;;;5007813;28;20294;-72
2022/11/13 01:48:50;;;;;;;31.97;17.07;;;;;;;;;;5008212;28;20279;-70
2022/11/13 01:51:45;;;;;;;34.88;18.08;;;;;;;;;;5007242;28;20287;-71
2022/11/13 01:54:12;;;;;;;34.30;18.48;;;;;;;;;;4993768;28;20063;-71
2022/11/13 01:56:39;;;;;;;31.75;17.42;;;;;;;;;;5009498;28;20083;-71
2022/11/13 01:59:16;;;;;;;31.73;17.58;;;;;;;;;;5009660;28;20042;-71
2022/11/13 02:01:41;;;;;;;32.03;17.02;;;;;;;;;;4993026;28;20466;-71
2022/11/13 02:04:07;;;;;;;32.07;16.63;;;;;;;;;;5005419;28;20030;-72
2022/11/13 02:06:35;;;;;;;33.45;17.02;;;;;;;;;;5012159;28;20294;-70
2022/11/13 02:09:01;;;;;;;28.52;15.35;;;;;;;;;;4990627;28;20034;-71
2022/11/13 02:11:26;;;;;;;35.00;17.13;;;;;;;;;;5008684;28;20018;-70
2022/11/13 02:13:51;;;;;;;29.60;16.23;;;;;;;;;;5010141;28;20047;-71
2022/11/13 02:16:17;;;;;;;37.75;16.77;;;;;;;;;;5007240;28;20278;-71
2022/11/13 02:18:42;;;;;;;35.80;17.13;;;;;;;;;;5003962;28;20112;-72
2022/11/13 02:21:26;;;;;;;33.33;17.42;;;;;;;;;;5009546;28;20037;-71
2022/11/13 02:24:15;;;;;;;36.88;16.83;;;;;;;;;;5007593;28;20091;-72
2022/11/13 02:26:41;;;;;;;35.75;17.17;;;;;;;;;;4996700;28;20415;-72
2022/11/13 02:29:06;;;;;;;32.30;17.02;;;;;;;;;;5003040;28;20061;-71
2022/11/13 02:31:31;;;;;;;32.07;16.10;;;;;;;;;;5000866;28;20065;-71
2022/11/13 02:33:56;;;;;;;37.97;18.43;;;;;;;;;;4984300;28;20030;-71
2022/11/13 02:36:23;;;;;;;33.33;17.05;;;;;;;;;;5007502;28;20030;-71
2022/11/13 02:38:49;;;;;;;38.83;18.23;;;;;;;;;;5013231;28;20030;-71
2022/11/13 02:41:14;;;;;;;36.38;17.77;;;;;;;;;;5004800;28;20072;-71
2022/11/13 02:43:39;;;;;;;31.80;17.37;;;;;;;;;;5012436;28;20037;-70
2022/11/13 02:46:05;;;;;;;36.83;17.43;;;;;;;;;;5007940;28;20026;-70
2022/11/13 02:48:30;;;;;;;32.67;16.50;;;;;;;;;;4991899;28;20041;-71
2022/11/13 02:50:55;;;;;;;38.33;18.40;;;;;;;;;;5009467;28;20841;-70
2022/11/13 02:53:20;;;;;;;36.10;17.53;;;;;;;;;;5006408;28;20420;-71
2022/11/13 02:55:46;;;;;;;33.00;17.20;;;;;;;;;;5006719;28;20423;-71
2022/11/13 02:58:11;;;;;;;36.10;17.93;;;;;;;;;;5007177;28;20405;-71
2022/11/13 03:00:36;;;;;;;33.53;16.80;;;;;;;;;;5009088;28;20290;-70
2022/11/13 03:03:01;;;;;;;34.70;18.43;;;;;;;;;;5011407;28;20295;-72
2022/11/13 03:05:27;;;;;;;33.37;16.60;;;;;;;;;;5002815;28;20496;-71
2022/11/13 03:07:52;;;;;;;36.00;16.57;;;;;;;;;;5007774;28;20052;-71
2022/11/13 03:10:17;;;;;;;30.33;15.65;;;;;;;;;;5000737;28;20284;-71
2022/11/13 03:12:43;;;;;;;35.00;16.53;;;;;;;;;;5009864;28;20026;-70
2022/11/13 03:15:08;;;;;;;34.05;16.33;;;;;;;;;;5006538;28;20042;-70
2022/11/13 03:17:34;;;;;;;31.90;16.88;;;;;;;;;;5006364;28;20034;-70
2022/11/13 03:19:59;;;;;;;28.15;15.77;;;;;;;;;;5008884;28;20022;-71
2022/11/13 03:22:24;;;;;;;37.95;17.52;;;;;;;;;;5012805;28;20044;-70
2022/11/13 03:24:50;;;;;;;34.05;17.17;;;;;;;;;;5007441;28;20137;-70
2022/11/13 03:27:15;;;;;;;32.57;15.27;;;;;;;;;;5010207;28;20438;-72
2022/11/13 03:29:40;;;;;;;31.40;15.50;;;;;;;;;;5010774;28;20276;-70
2022/11/13 03:32:05;;;;;;;29.40;16.20;;;;;;;;;;5013851;28;20792;-70
2022/11/13 03:34:31;;;;;;;33.23;16.10;;;;;;;;;;5010256;28;20283;-70
2022/11/13 03:36:56;;;;;;;31.92;15.82;;;;;;;;;;5010689;28;20037;-69
2022/11/13 03:39:21;;;;;;;32.27;16.63;;;;;;;;;;5009948;28;20056;-71
2022/11/13 03:41:46;;;;;;;30.60;16.00;;;;;;;;;;5009532;28;20271;-71
2022/11/13 03:44:12;;;;;;;31.13;16.67;;;;;;;;;;5010406;28;20398;-71
2022/11/13 03:46:37;;;;;;;33.03;16.23;;;;;;;;;;5008456;28;20286;-71
2022/11/13 03:49:02;;;;;;;32.67;16.13;;;;;;;;;;5009513;28;20034;-70
2022/11/13 03:51:27;;;;;;;32.50;15.90;;;;;;;;;;5012070;28;20290;-69
2022/11/13 03:53:53;;;;;;;32.70;16.27;;;;;;;;;;5008625;28;20310;-70
2022/11/13 03:56:18;;;;;;;32.13;15.43;;;;;;;;;;5009222;28;20029;-70
2022/11/13 03:58:43;;;;;;;33.83;17.30;;;;;;;;;;5009891;28;20100;-71
2022/11/13 04:01:09;;;;;;;35.47;16.17;;;;;;;;;;5007584;28;20630;-70
2022/11/13 04:03:34;;;;;;;33.38;16.25;;;;;;;;;;5008110;28;20387;-71
2022/11/13 04:05:59;;;;;;;39.00;16.70;;;;;;;;;;5013747;28;20033;-71
2022/11/13 04:08:24;;;;;;;33.90;16.83;;;;;;;;;;5006950;28;20072;-71
2022/11/13 04:10:50;;;;;;;33.63;16.42;;;;;;;;;;4991792;28;20022;-71
2022/11/13 04:13:15;;;;;;;32.35;16.60;;;;;;;;;;5003971;28;20077;-71
2022/11/13 04:15:40;;;;;;;34.57;17.40;;;;;;;;;;5009943;28;20033;-71
2022/11/13 04:18:05;;;;;;;33.47;15.97;;;;;;;;;;4997218;28;20366;-71
2022/11/13 04:20:31;;;;;;;33.00;16.07;;;;;;;;;;5007075;28;20832;-71
2022/11/13 04:22:56;;;;;;;31.85;16.92;;;;;;;;;;5011483;28;20293;-72
2022/11/13 04:25:22;;;;;;;33.23;16.27;;;;;;;;;;5008875;28;20052;-72
2022/11/13 04:27:50;;;;;;;33.35;16.80;;;;;;;;;;5010094;28;20279;-71
2022/11/13 04:30:18;;;;;;;38.40;18.03;;;;;;;;;;5003281;28;20030;-71
2022/11/13 04:32:44;;;;;;;36.13;17.17;;;;;;;;;;5007637;28;20309;-71
2022/11/13 04:35:09;;;;;;;35.90;17.70;;;;;;;;;;5012834;28;20057;-71
2022/11/13 04:37:34;;;;;;;33.17;16.83;;;;;;;;;;5006639;28;20033;-71
2022/11/13 04:40:00;;;;;;;32.85;16.65;;;;;;;;;;5008837;28;20578;-71
2022/11/13 04:45:09;;;;;;;32.95;16.40;;;;;;;;;;4990418;28;20814;-70
2022/11/13 04:47:34;;;;;;;31.63;16.63;;;;;;;;;;5005121;28;20038;-70
2022/11/13 04:49:59;;;;;;;35.17;17.05;;;;;;;;;;5000833;28;20306;-70
2022/11/13 04:52:24;;;;;;;35.67;17.43;;;;;;;;;;5003025;28;20034;-71
2022/11/13 04:54:50;;;;;;;34.23;16.50;;;;;;;;;;5009507;28;20661;-71
2022/11/13 04:57:15;;;;;;;34.35;16.30;;;;;;;;;;5005453;28;20298;-71
2022/11/13 04:59:40;;;;;;;31.85;15.00;;;;;;;;;;4962683;28;1146486;-71
2022/11/13 05:02:05;;;;;;;29.17;15.03;;;;;;;;;;5012134;28;20044;-70
2022/11/13 05:04:31;;;;;;;32.67;16.07;;;;;;;;;;5010443;28;20294;-71
2022/11/13 05:06:56;;;;;;;32.93;14.40;;;;;;;;;;5012838;28;20263;-71
2022/11/13 05:09:21;;;;;;;28.07;15.33;;;;;;;;;;5013703;28;20275;-72
2022/11/13 05:11:46;;;;;;;39.27;16.90;;;;;;;;;;5011079;28;20350;-71
2022/11/13 05:14:12;;;;;;;36.90;17.50;;;;;;;;;;5008132;28;20030;-71
2022/11/13 05:16:37;;;;;;;34.97;17.45;;;;;;;;;;5009518;28;20287;-71
2022/11/13 05:19:05;;;;;;;41.58;18.52;;;;;;;;;;5009756;28;20033;-71
2022/11/13 05:21:31;;;;;;;34.05;17.35;;;;;;;;;;5010681;28;20026;-71
2022/11/13 05:23:57;;;;;;;40.42;19.35;;;;;;;;;;5012113;28;20100;-71
2022/11/13 05:26:22;;;;;;;42.87;17.90;;;;;;;;;;5010712;28;20156;-71
2022/11/13 05:28:47;;;;;;;40.42;18.40;;;;;;;;;;5007689;28;20109;-71
2022/11/13 05:31:13;;;;;;;39.60;18.43;;;;;;;;;;5006374;28;20044;-71
2022/11/13 05:33:39;;;;;;;42.55;19.17;;;;;;;;;;4991334;28;20029;-70
2022/11/13 05:36:09;;;;;;;38.17;18.83;;;;;;;;;;5005541;28;20030;-72
2022/11/13 05:38:34;;;;;;;;;;;;;;;;;;5011804;28;20051;-72
2022/11/13 05:41:03;;;;;;;36.80;17.67;;;;;;;;;;5004170;28;20010;-71
2022/11/13 05:43:29;;;;;;;35.88;18.60;;;;;;;;;;4986171;28;20092;-69
2022/11/13 05:46:00;;;;;;;41.92;19.25;;;;;;;;;;5009277;28;20042;-71
2022/11/13 05:48:25;;;;;;;40.33;18.77;;;;;;;;;;5009167;28;20029;-71
2022/11/13 05:50:51;;;;;;;40.20;18.05;;;;;;;;;;5006973;28;20022;-70
2022/11/13 05:53:16;;;;;;;32.83;17.13;;;;;;;;;;5005155;28;20025;-71
2022/11/13 05:55:41;;;;;;;40.23;18.63;;;;;;;;;;5011914;28;20728;-71
2022/11/13 05:58:06;;;;;;;37.23;18.03;;;;;;;;;;4995481;28;20025;-71
2022/11/13 06:00:31;;;;;;;41.70;19.23;;;;;;;;;;5006814;28;20050;-71
2022/11/13 06:02:58;;;;;;;41.87;19.70;;;;;;;;;;5012881;28;20069;-71
2022/11/13 06:05:23;;;;;;;45.85;19.52;;;;;;;;;;5012369;28;20287;-70
2022/11/13 06:07:49;;;;;;;39.20;19.33;;;;;;;;;;5001267;28;20032;-71
2022/11/13 06:10:14;;;;;;;42.08;19.88;;;;;;;;;;5009125;28;20060;-71
2022/11/13 06:12:39;;;;;;;41.75;19.98;;;;;;;;;;5010733;28;20096;-70
2022/11/13 06:15:05;;;;;;;40.13;19.40;;;;;;;;;;5005449;28;20037;-71
2022/11/13 06:17:30;;;;;;;39.67;20.15;;;;;;;;;;5008323;28;20092;-72
2022/11/13 06:19:55;;;;;;;42.33;19.77;;;;;;;3.77;nan;102040.66;5005091;28;20025;-70
2022/11/13 06:22:21;;;;;;;44.78;22.40;;;;;;;;;;5008869;28;20028;-70
2022/11/13 06:24:46;;;;;;;42.30;20.57;;;;;;;;;;5009824;28;20109;-71
2022/11/13 06:27:11;;;;;;;45.57;21.43;;;;;;;;;;5008820;28;20410;-70
2022/11/13 06:29:36;;;;;;;50.93;22.13;;;;;;;;;;5003516;28;20282;-69
2022/11/13 06:32:02;;;;;;;46.60;22.37;;;;;;;4.12;nan;102080.91;5008540;28;20023;-70
2022/11/13 06:34:27;;;;;;;45.30;23.17;;;;;;;4.19;nan;102095.03;5003382;28;20056;-69
2022/11/13 06:36:52;;;;;;;46.88;23.27;;;;;;;;;;4989838;28;20037;-69
2022/11/13 06:39:18;;;;;;;47.72;23.30;;;;;;;;;;5009255;28;20390;-69
2022/11/13 06:41:43;;;;;;;47.58;23.85;;;;;;;;;;5006824;28;20547;-70
2022/11/13 06:44:08;;;;;;;49.97;24.33;;;;;;;;;;5006511;28;20101;-70
2022/11/13 06:46:33;;;;;;;45.53;22.40;;;;;;;;;;5013458;28;20653;-69
2022/11/13 06:48:59;;;;;;;53.42;24.40;;;;;;;;;;5007852;28;20099;-70
2022/11/13 06:51:25;;;;;;;49.50;24.63;;;;;;;;;;5010625;28;20511;-70
2022/11/13 06:53:51;;;;;;;47.38;24.63;;;;;;;;;;5004898;28;20026;-70
2022/11/13 06:56:16;;;;;;;47.22;24.25;;;;;;;;;;5004452;28;20531;-70
2022/11/13 06:58:42;;;;;;;48.67;23.98;;;;;;;;;;5009454;28;20045;-71
2022/11/13 07:01:15;;;;;;;53.35;25.00;;;;;;;;;;5003679;28;20081;-71
2022/11/13 07:03:41;;;;;;;49.50;24.05;;;;;;;;;;5004782;28;20024;-71
2022/11/13 07:06:08;;;;;;;44.45;22.50;;;;;;;;;;4995619;28;20022;-70
2022/11/13 07:08:33;;;;;;;46.80;24.23;;;;;;;;;;5004682;28;20033;-70
2022/11/13 07:10:59;;;;;;;48.45;23.20;;;;;;;;;;5003258;28;20030;-72
2022/11/13 07:13:24;;;;;;;45.13;23.73;;;;;;;;;;5009361;28;20030;-72
2022/11/13 07:15:50;;;;;;;46.70;24.17;;;;;;;;;;4993838;28;20026;-71
2022/11/13 07:18:15;;;;;;;42.67;22.93;;;;;;;;;;5005978;28;20415;-70
2022/11/13 07:20:40;;;;;;;47.05;23.75;;;;;;;;;;4993167;28;20132;-70
2022/11/13 07:23:05;;;;;;;45.90;24.77;;;;;;;;;;4988032;28;20029;-70
2022/11/13 07:25:31;;;;;;;52.63;25.63;;;;;;;;;;5004889;28;20334;-72
2022/11/13 07:27:56;;;;;;;50.80;24.42;;;;;;;;;;5004681;28;20314;-72
2022/11/13 07:30:22;;;;;;;48.20;24.23;;;;;;;;;;4980474;28;20117;-71
2022/11/13 07:32:47;;;;;;;46.60;24.40;;;;;;;;;;5005304;28;20503;-70
2022/11/13 07:35:13;;;;;;;50.10;23.65;;;;;;;;;;5009446;28;20049;-70
2022/11/13 07:37:38;;;;;;;48.15;22.55;;;;;;;;;;5001314;28;20125;-70
2022/11/13 07:40:04;;;;;;;41.47;20.90;;;;;;;;;;5005845;28;20101;-71
2022/11/13 07:42:29;;;;;;;42.00;22.20;;;;;;;;;;5005024;28;20341;-70
2022/11/13 07:44:54;;;;;;;40.05;19.63;;;;;;;;;;5002522;28;20033;-71
2022/11/13 07:47:20;;;;;;;39.78;21.58;;;;;;;;;;4986590;28;20026;-70
2022/11/13 07:49:45;;;;;;;42.70;21.90;;;;;;;;;;4982542;28;20051;-71
2022/11/13 07:52:10;;;;;;;39.60;21.03;;;;;;;;;;5002533;28;20533;-71
2022/11/13 07:54:35;;;;;;;43.77;21.17;;;;;;;;;;5006808;28;20272;-71
2022/11/13 07:57:01;;;;;;;35.80;18.10;;;;;;;;;;5003762;28;20106;-71
2022/11/13 07:59:26;;;;;;;36.72;19.70;;;;;;;;;;5000930;28;20043;-71
2022/11/13 08:01:51;;;;;;;35.53;19.02;;;;;;;;;;5001471;28;20029;-71
2022/11/13 08:04:16;;;;;;;32.90;18.43;;;;;;;;;;5009344;28;20022;-71
2022/11/13 08:06:42;;;;;;;33.60;18.30;;;;;;;;;;5012607;28;20216;-70
2022/11/13 08:09:07;;;;;;;35.10;17.47;;;;;;;;;;5009171;28;20050;-71
2022/11/13 08:11:32;;;;;;;33.83;18.10;;;;;;;;;;5008602;28;20374;-71
2022/11/13 08:13:58;;;;;;;35.30;18.73;;;;;;;;;;5012504;28;20068;-69
2022/11/13 08:16:23;;;;;;;32.25;17.58;;;;;;;;;;5010046;28;20062;-69
2022/11/13 08:18:49;;;;;;;35.00;17.73;;;;;;;;;;5009781;28;20491;-69
2022/11/13 08:21:14;;;;;;;41.55;20.42;;;;;;;;;;5007206;28;20021;-69
2022/11/13 08:23:40;;;;;;;36.00;20.27;;;;;;;;;;5008394;28;20384;-69
2022/11/13 08:26:06;;;;;;;45.35;22.73;;;;;;;;;;5005450;28;20833;-69
2022/11/13 08:28:32;;;;;;;38.17;21.95;;;;;;;;;;5002174;28;20116;-70
2022/11/13 08:30:57;;;;;;;40.38;21.13;;;;;;;;;;5004177;28;20408;-70
2022/11/13 08:33:23;;;;;;;35.40;17.63;;;;;;;;;;5003077;28;20018;-69
2022/11/13 08:35:52;;;;;;;30.38;16.20;;;;;;;;;;5010822;28;20034;-70
2022/11/13 08:38:17;;;;;;;29.95;15.07;;;;;;;;;;5011236;28;20065;-69
2022/11/13 08:40:43;;;;;;;32.30;16.87;;;;;;;;;;5007617;28;20077;-70
2022/11/13 08:43:08;;;;;;;29.10;16.40;;;;;;;;;;5003307;28;22162;-69
2022/11/13 08:45:33;;;;;;;31.33;16.30;;;;;;;;;;5011189;28;20104;-72
2022/11/13 08:48:00;;;;;;;31.70;16.83;;;;;;;;;;5006414;28;20380;-72
2022/11/13 08:50:25;;;;;;;28.63;15.15;;;;;;;;;;4991540;28;20279;-71
2022/11/13 08:52:54;;;;;;;27.98;15.23;;;;;;;;;;4991699;28;20180;-71
2022/11/13 08:55:19;;;;;;;28.60;15.80;;;;;;;;;;5008033;28;20033;-72
2022/11/13 08:57:45;;;;;;;31.17;16.93;;;;;;;;;;5014436;28;20029;-71
2022/11/13 09:00:10;;;;;;;31.57;15.13;;;;;;;;;;5010429;28;20046;-71
2022/11/13 09:02:36;;;;;;;27.10;14.70;;;;;;;;;;4992854;28;20497;-72
2022/11/13 09:05:01;;;;;;;28.70;15.27;;;;;;;;;;5000931;28;20468;-72
2022/11/13 09:07:26;;;;;;;28.10;14.70;;;;;;;;;;5016556;28;20048;-73
2022/11/13 09:09:51;;;;;;;25.57;14.20;;;;;;;;;;5003669;28;20396;-71
2022/11/13 09:12:16;;;;;;;24.67;14.27;;;;;;;;;;5010217;28;20375;-72
2022/11/13 09:14:42;;;;;;;23.00;12.97;;;;;;;;;;5009924;28;20048;-72
2022/11/13 09:17:07;;;;;;;23.80;13.07;;;;;;;;;;5009530;28;20430;-71
2022/11/13 09:19:32;;;;;;;26.73;12.97;;;;;;;;;;5007935;28;20283;-72
2022/11/13 09:21:57;;;;;;;21.00;12.40;;;;;;;;;;5010940;28;20030;-72
2022/11/13 09:24:23;;;;;;;22.10;11.17;;;;;;;;;;5007460;28;20684;-70
2022/11/13 09:26:48;;;;;;;28.27;13.20;;;;;;;;;;5008498;28;20287;-70
2022/11/13 09:29:13;;;;;;;19.50;11.43;;;;;;;;;;5004838;28;20117;-70
2022/11/13 09:31:39;;;;;;;21.63;11.30;;;;;;;;;;5009901;28;20048;-71
2022/11/13 09:34:05;;;;;;;18.45;10.88;;;;;;;;;;5010626;28;20411;-70
2022/11/13 09:36:30;;;;;;;21.02;11.73;;;;;;;;;;5011674;28;20033;-71
2022/11/13 09:38:55;;;;;;;18.63;10.20;;;;;;;;;;5004596;28;20396;-70
2022/11/13 09:41:27;;;;;;;22.70;11.60;;;;;;;;;;5011532;28;20013;-70
2022/11/13 09:43:53;;;;;;;18.95;10.90;;;;;;;;;;5009083;28;20048;-70
2022/11/13 09:46:18;;;;;;;18.40;10.70;;;;;;;;;;5013596;28;20627;-70
2022/11/13 09:48:49;;;;;;;16.07;9.77;;;;;;;;;;5012204;28;20108;-70
2022/11/13 09:51:20;;;;;;;18.45;10.95;;;;;;;;;;5007885;28;20349;-69
2022/11/13 09:53:45;;;;;;;18.42;11.07;;;;;;;;;;5013676;28;20566;-70
2022/11/13 09:56:23;;;;;;;21.13;11.15;;;;;;;;;;5011908;28;20036;-70
2022/11/13 09:59:08;;;;;;;16.98;10.45;;;;;;;;;;5007577;28;20595;-70
2022/11/13 10:01:40;;;;;;;15.63;10.23;;;;;;;;;;5010313;28;20026;-73
2022/11/13 10:04:07;;;;;;;15.90;9.07;;;;;;;;;;5009339;28;20025;-73
2022/11/13 10:06:58;;;;;;;16.23;9.32;;;;;;;;;;5007715;28;20044;-74
2022/11/13 10:09:29;;;;;;;16.55;8.80;;;;;;;;;;4966551;28;20086;-73
2022/11/13 10:11:56;;;;;;;12.48;8.27;;;;;;;;;;4967636;28;20532;-70
2022/11/13 10:14:28;;;;;;;14.80;8.40;;;;;;;;;;4969558;28;20042;-70
2022/11/13 10:16:53;;;;;;;13.07;8.35;;;;;;;;;;4968294;28;20043;-71
2022/11/13 10:19:18;;;;;;;13.00;8.27;;;;;;;;;;4954102;28;20037;-68
2022/11/13 10:21:47;;;;;;;17.10;9.07;;;;;;;;;;4965418;28;20085;-73
2022/11/13 10:24:17;;;;;;;16.42;7.95;;;;;;;;;;4968779;28;20312;-68
2022/11/13 10:26:43;;;;;;;19.98;8.52;;;;;;;;;;4968040;28;20535;-68
2022/11/13 10:29:13;;;;;;;15.93;8.30;;;;;;;;;;4954355;28;20030;-69
2022/11/13 10:31:44;;;;;;;14.68;8.63;;;;;;;11.97;nan;101954.06;4951908;28;20133;-71
2022/11/13 10:34:10;;;;;;;14.20;8.65;;;;;;;;;;4970032;28;20043;-69
2022/11/13 10:36:58;;;;;;;14.43;7.90;;;;;;;;;;4952322;28;20049;-69
2022/11/13 10:39:24;;;;;;;13.25;7.60;;;;;;;;;;4969685;28;20104;-70
2022/11/13 10:41:50;;;;;;;16.87;7.80;;;;;;;;;;4970164;28;20130;-69
2022/11/13 10:44:16;;;;;;;13.30;7.38;;;;;;;;;;4952935;28;20288;-70
2022/11/13 10:46:41;;;;;;;13.63;8.10;;;;;;;;;;4994939;28;20030;-70
2022/11/13 10:49:11;;;;;;;11.57;7.20;;;;;;;;;;5007571;28;20025;-70
2022/11/13 10:51:38;;;;;;;13.35;7.78;;;;;;;;;;5009038;28;20287;-69
2022/11/13 10:54:18;;;;;;;13.73;7.32;;;;;;;;;;5008097;28;20030;-69
2022/11/13 10:56:43;;;;;;;12.48;7.50;;;;;;;;;;5004196;28;20092;-69
2022/11/13 10:59:12;;;;;;;12.13;7.13;;;;;;;;;;5005973;28;20179;-69
2022/11/13 11:01:37;;;;;;;;;;;;;;;;;;5006597;28;20048;-69
2022/11/13 11:04:03;;;;;;;9.93;6.43;;;;;;;;;;5007356;28;20399;-69
2022/11/13 11:06:33;;;;;;;11.85;6.47;;;;;;;;;;5004996;28;20049;-67
2022/11/13 11:08:58;;;;;;;;;;;;;;;;;;5006225;28;20034;-69
2022/11/13 11:14:18;;;;;;;11.73;6.10;;;;;;;;;;5011252;28;20060;-69
2022/11/13 11:16:45;;;;;;;10.70;6.80;;;;;;;;;;4990290;28;20078;-69
2022/11/13 11:19:11;;;;;;;11.60;7.28;;;;;;;;;;4988659;28;20034;-69
2022/11/13 11:21:38;;;;;;;13.13;7.35;;;;;;;;;;5013433;28;20029;-69
2022/11/13 11:24:06;;;;;;;11.88;7.00;;;;;;;;;;5012885;28;20024;-69
2022/11/13 11:26:34;;;;;;;10.32;6.70;;;;;;;;;;5007297;28;20163;-69
2022/11/13 11:29:05;;;;;;;9.77;6.28;;;;;;;;;;5001316;28;20119;-69
2022/11/13 11:31:51;;;;;;;11.02;6.78;;;;;;;;;;5003741;28;20050;-69
2022/11/13 11:34:16;;;;;;;14.02;6.93;;;;;;;;;;5006682;28;20049;-69
2022/11/13 11:37:04;;;;;;;11.50;6.83;;;;;;;;;;5007154;28;20038;-69
2022/11/13 11:39:32;;;;;;;10.65;7.18;;;;;;;;;;5001428;28;20287;-69
2022/11/13 11:42:06;;;;;;;12.18;6.68;;;;;;;;;;5012545;28;20566;-69
2022/11/13 11:44:52;;;;;;;8.95;5.68;;;;;;;;;;5000431;28;20096;-69
2022/11/13 11:47:17;;;;;;;10.95;7.00;;;;;;;;;;5001571;28;20452;-69
2022/11/13 11:49:42;;;;;;;10.43;6.83;;;;;;;;;;5009554;28;20113;-69
2022/11/13 11:52:23;;;;;;;9.98;6.50;;;;;;;;;;5009747;28;20288;-69
2022/11/13 11:55:04;;;;;;;10.07;6.38;;;;;;;;;;5009076;28;20030;-69
2022/11/13 11:57:38;;;;;;;9.85;6.45;;;;;;;;;;5010406;28;20028;-69
2022/11/13 12:00:05;;;;;;;11.13;6.80;;;;;;;;;;5010905;28;20058;-69
2022/11/13 12:02:30;;;;;;;10.77;5.78;;;;;;;;;;5010505;28;20064;-69
2022/11/13 12:05:12;;;;;;;8.77;5.67;;;;;;;;;;5014715;28;20368;-67
2022/11/13 12:07:50;;;;;;;12.05;6.82;;;;;;;;;;5002579;28;20448;-69
2022/11/13 12:10:30;;;;;;;10.13;6.70;;;;;;;;;;5006514;28;20559;-69
2022/11/13 12:12:58;;;;;;;9.55;6.53;;;;;;;;;;5003481;28;20049;-69
2022/11/13 12:15:24;;;;;;;10.27;6.50;;;;;;;;;;5006812;28;20021;-69
2022/11/13 12:17:49;;;;;;;13.00;6.85;;;;;;;;;;5007012;28;20430;-69
2022/11/13 12:20:24;;;;;;;10.27;6.40;;;;;;;;;;5007080;28;20071;-70
2022/11/13 12:23:10;;;;;;;10.65;7.20;;;;;;;;;;5009698;28;20490;-70
2022/11/13 12:25:35;;;;;;;9.68;6.47;;;;;;;;;;4994471;28;20046;-69
2022/11/13 12:28:09;;;;;;;12.15;7.18;;;;;;;;;;4998654;28;20030;-69
2022/11/13 12:30:57;;;;;;;10.75;6.53;;;;;;;;;;5009617;28;20084;-69
2022/11/13 12:33:22;;;;;;;11.93;6.68;;;;;;;;;;4918144;29;20040;-69
2022/11/13 12:35:51;;;;;;;13.33;6.97;;;;;;;;;;4921131;29;20039;-66
2022/11/13 12:38:22;;;;;;;10.98;7.28;;;;;;;;;;4922404;29;20506;-69
2022/11/13 12:40:52;;;;;;;11.77;7.00;;;;;;;;;;4909804;29;20447;-69
2022/11/13 12:43:27;;;;;;;13.35;6.82;;;;;;;;;;4924574;29;20060;-69
2022/11/13 12:45:54;;;;;;;10.63;7.30;;;;;;;;;;4924279;29;20023;-69
2022/11/13 12:48:19;;;;;;;9.57;6.72;;;;;;;;;;4921751;29;20375;-69
2022/11/13 12:50:55;;;;;;;10.95;7.68;;;;;;;;;;4925636;29;20047;-69
2022/11/13 12:53:28;;;;;;;13.02;7.60;;;;;;;;;;4928014;29;20032;-69
2022/11/13 12:55:55;;;;;;;13.15;7.70;;;;;;;;;;4930232;29;20865;-69
2022/11/13 12:58:23;;;;;;;15.55;7.32;;;;;;;;;;4926846;29;20076;-69
2022/11/13 13:00:54;;;;;;;11.35;8.02;;;;;;;;;;4925245;29;20051;-69
2022/11/13 13:03:34;;;;;;;12.43;8.15;;;;;;;14.41;nan;101812.16;4930874;29;20036;-69
2022/11/13 13:06:02;;;;;;;12.20;7.72;;;;;;;;;;4933977;29;20036;-69
2022/11/13 13:08:51;;;;;;;11.98;7.65;;;;;;;;;;4915333;29;20925;-69
2022/11/13 13:11:34;;;;;;;12.17;7.87;;;;;;;;;;4937552;28;20049;-69
2022/11/13 13:14:08;;;;;;;13.35;7.53;;;;;;;;;;4942835;28;20044;-69
2022/11/13 13:16:33;;;;;;;21.15;8.20;;;;;;;;;;4947851;28;20039;-69
2022/11/13 13:19:06;;;;;;;12.07;6.70;;;;;;;;;;4948970;28;20027;-69
2022/11/13 13:21:43;;;;;;;11.00;6.88;;;;;;;;;;4953297;28;20331;-70
2022/11/13 13:24:23;;;;;;;10.73;7.45;;;;;;;;;;4951753;28;20346;-70
2022/11/13 13:26:49;;;;;;;11.68;7.40;;;;;;;;;;4947245;28;20031;-69
2022/11/13 13:29:22;;;;;;;10.23;6.50;;;;;;;;;;4949978;28;20690;-69
2022/11/13 13:31:56;;;;;;;14.00;7.18;;;;;;;;;;4950179;28;20772;-69
2022/11/13 13:34:26;;;;;;;10.70;7.05;;;;;;;;;;4943123;28;20039;-69
2022/11/13 13:36:51;;;;;;;12.65;7.45;;;;;;;;;;4938058;28;20074;-66
2022/11/13 13:39:19;;;;;;;13.23;7.77;;;;;;;;;;4942960;28;20501;-65
2022/11/13 13:41:50;;;;;;;13.65;7.32;;;;;;;;;;4937337;28;20347;-66
2022/11/13 13:44:15;;;;;;;12.02;7.30;;;;;;;;;;4942637;28;20435;-67
2022/11/13 13:46:41;;;;;;;11.77;7.60;;;;;;;;;;4944962;28;20042;-66
2022/11/13 13:49:10;;;;;;;13.05;7.22;;;;;;;;;;4976689;28;20039;-65
2022/11/13 13:51:39;;;;;;;12.45;7.55;;;;;;;;;;4990961;28;20157;-65
2022/11/13 13:54:06;;;;;;;12.35;7.55;;;;;;;;;;4993722;28;20110;-65
2022/11/13 13:56:33;;;;;;;13.00;7.10;;;;;;;;;;4978242;28;20545;-65
2022/11/13 13:58:58;;;;;;;13.52;8.40;;;;;;;;;;4982575;28;20176;-64
2022/11/13 14:01:28;;;;;;;22.70;9.90;;;;;;;;;;4997830;28;20113;-66
2022/11/13 14:04:12;;;;;;;13.25;7.70;;;;;;;;;;4998587;28;20033;-69
2022/11/13 14:06:46;;;;;;;13.35;7.32;;;;;;;;;;5005985;28;20037;-66
2022/11/13 14:09:16;;;;;;;15.68;7.70;;;;;;;;;;5008107;28;20415;-66
2022/11/13 14:11:42;;;;;;;10.02;6.68;;;;;;;;;;5007449;28;20361;-64
2022/11/13 14:14:15;;;;;;;10.67;6.50;;;;;;;;;;5011563;28;20036;-64
2022/11/13 14:16:51;;;;;;;9.95;6.55;;;;;;;;;;5010249;28;20060;-65
2022/11/13 14:19:16;;;;;;;11.40;6.55;;;;;;;;;;5009244;28;20087;-65
2022/11/13 14:21:43;;;;;;;11.45;6.40;;;;;;;;;;5010402;28;20025;-69
2022/11/13 14:24:17;;;;;;;9.80;6.60;;;;;;;;;;5011259;28;20057;-69
2022/11/13 14:26:43;;;;;;;12.43;7.15;;;;;;;;;;5004068;28;20030;-69